sensor_id;sensor_type;location;lat;lon;timestamp;P1;durP1;ratioP1;P2;durP2;ratioP2
63943;SDS011;50121;51.218;7.664;2023-09-12T00:02:17;22.85;;;19.73;;
63943;SDS011;50121;51.218;7.664;2023-09-12T00:04:44;24.90;;;20.20;;
63943;SDS011;50121;51.218;7.664;2023-09-12T00:07:12;21.55;;;18.60;;
63943;SDS011;50121;51.218;7.664;2023-09-12T00:09:40;20.48;;;18.30;;
63943;SDS011;50121;51.218;7.664;2023-09-12T00:12:07;21.90;;;19.63;;
63943;SDS011;50121;51.218;7.664;2023-09-12T00:14:35;23.70;;;20.15;;
63943;SDS011;50121;51.218;7.664;2023-09-12T00:17:03;23.95;;;19.67;;
63943;SDS011;50121;51.218;7.664;2023-09-12T00:19:30;24.33;;;20.80;;
63943;SDS011;50121;51.218;7.664;2023-09-12T00:21:58;27.80;;;20.75;;
63943;SDS011;50121;51.218;7.664;2023-09-12T00:24:25;22.42;;;20.05;;
63943;SDS011;50121;51.218;7.664;2023-09-12T00:26:53;25.48;;;19.70;;
63943;SDS011;50121;51.218;7.664;2023-09-12T00:29:20;23.70;;;18.52;;
63943;SDS011;50121;51.218;7.664;2023-09-12T00:31:48;22.85;;;19.92;;
63943;SDS011;50121;51.218;7.664;2023-09-12T00:34:16;23.15;;;19.45;;
63943;SDS011;50121;51.218;7.664;2023-09-12T00:36:44;22.58;;;19.30;;
63943;SDS011;50121;51.218;7.664;2023-09-12T00:39:11;26.08;;;20.08;;
63943;SDS011;50121;51.218;7.664;2023-09-12T00:41:39;24.02;;;20.77;;
63943;SDS011;50121;51.218;7.664;2023-09-12T00:44:07;23.38;;;19.85;;
63943;SDS011;50121;51.218;7.664;2023-09-12T00:46:34;24.10;;;20.05;;
63943;SDS011;50121;51.218;7.664;2023-09-12T00:49:03;25.85;;;20.58;;
63943;SDS011;50121;51.218;7.664;2023-09-12T00:51:32;23.38;;;19.08;;
63943;SDS011;50121;51.218;7.664;2023-09-12T00:54:00;26.58;;;21.05;;
63943;SDS011;50121;51.218;7.664;2023-09-12T00:56:28;25.27;;;19.67;;
63943;SDS011;50121;51.218;7.664;2023-09-12T00:58:56;26.02;;;20.50;;
63943;SDS011;50121;51.218;7.664;2023-09-12T01:01:24;26.00;;;21.30;;
63943;SDS011;50121;51.218;7.664;2023-09-12T01:03:51;25.90;;;21.67;;
63943;SDS011;50121;51.218;7.664;2023-09-12T01:06:20;29.67;;;22.30;;
63943;SDS011;50121;51.218;7.664;2023-09-12T01:08:50;25.83;;;23.05;;
63943;SDS011;50121;51.218;7.664;2023-09-12T01:11:18;25.77;;;21.52;;
63943;SDS011;50121;51.218;7.664;2023-09-12T01:13:47;25.63;;;21.27;;
63943;SDS011;50121;51.218;7.664;2023-09-12T01:16:15;27.33;;;21.10;;
63943;SDS011;50121;51.218;7.664;2023-09-12T01:18:42;29.75;;;22.00;;
63943;SDS011;50121;51.218;7.664;2023-09-12T01:29:19;26.40;;;21.85;;
63943;SDS011;50121;51.218;7.664;2023-09-12T01:31:49;24.58;;;21.90;;
63943;SDS011;50121;51.218;7.664;2023-09-12T01:34:16;25.45;;;21.77;;
63943;SDS011;50121;51.218;7.664;2023-09-12T01:36:45;27.42;;;21.75;;
63943;SDS011;50121;51.218;7.664;2023-09-12T01:39:13;27.33;;;22.98;;
63943;SDS011;50121;51.218;7.664;2023-09-12T01:41:40;28.45;;;22.88;;
63943;SDS011;50121;51.218;7.664;2023-09-12T01:44:10;28.42;;;23.58;;
63943;SDS011;50121;51.218;7.664;2023-09-12T01:46:39;26.85;;;23.33;;
63943;SDS011;50121;51.218;7.664;2023-09-12T01:49:08;26.38;;;22.73;;
63943;SDS011;50121;51.218;7.664;2023-09-12T01:51:37;28.08;;;22.90;;
63943;SDS011;50121;51.218;7.664;2023-09-12T01:54:05;25.23;;;22.17;;
63943;SDS011;50121;51.218;7.664;2023-09-12T01:56:34;28.15;;;22.10;;
63943;SDS011;50121;51.218;7.664;2023-09-12T01:59:02;26.52;;;21.27;;
63943;SDS011;50121;51.218;7.664;2023-09-12T02:01:30;24.25;;;20.58;;
63943;SDS011;50121;51.218;7.664;2023-09-12T02:03:58;25.42;;;19.50;;
63943;SDS011;50121;51.218;7.664;2023-09-12T02:06:26;21.20;;;19.00;;
63943;SDS011;50121;51.218;7.664;2023-09-12T02:08:54;18.40;;;16.58;;
63943;SDS011;50121;51.218;7.664;2023-09-12T02:11:22;21.40;;;16.30;;
63943;SDS011;50121;51.218;7.664;2023-09-12T02:13:50;19.05;;;16.20;;
63943;SDS011;50121;51.218;7.664;2023-09-12T02:16:17;19.48;;;15.50;;
63943;SDS011;50121;51.218;7.664;2023-09-12T02:18:45;16.67;;;14.88;;
63943;SDS011;50121;51.218;7.664;2023-09-12T02:21:12;17.35;;;15.48;;
63943;SDS011;50121;51.218;7.664;2023-09-12T02:23:40;18.17;;;15.00;;
63943;SDS011;50121;51.218;7.664;2023-09-12T02:26:08;18.08;;;14.65;;
63943;SDS011;50121;51.218;7.664;2023-09-12T02:28:35;17.20;;;15.25;;
63943;SDS011;50121;51.218;7.664;2023-09-12T02:31:03;16.50;;;14.90;;
63943;SDS011;50121;51.218;7.664;2023-09-12T02:33:30;18.05;;;14.73;;
63943;SDS011;50121;51.218;7.664;2023-09-12T02:36:03;17.48;;;15.65;;
63943;SDS011;50121;51.218;7.664;2023-09-12T02:38:31;19.27;;;17.27;;
63943;SDS011;50121;51.218;7.664;2023-09-12T02:40:59;20.33;;;17.38;;
63943;SDS011;50121;51.218;7.664;2023-09-12T02:43:27;21.50;;;15.77;;
63943;SDS011;50121;51.218;7.664;2023-09-12T02:45:54;18.25;;;15.88;;
63943;SDS011;50121;51.218;7.664;2023-09-12T02:48:22;20.65;;;14.90;;
63943;SDS011;50121;51.218;7.664;2023-09-12T02:50:49;17.20;;;14.10;;
63943;SDS011;50121;51.218;7.664;2023-09-12T02:53:17;16.63;;;14.20;;
63943;SDS011;50121;51.218;7.664;2023-09-12T02:55:45;19.40;;;14.15;;
63943;SDS011;50121;51.218;7.664;2023-09-12T02:58:12;15.98;;;13.95;;
63943;SDS011;50121;51.218;7.664;2023-09-12T03:00:40;15.05;;;13.55;;
63943;SDS011;50121;51.218;7.664;2023-09-12T03:03:08;18.10;;;14.45;;
63943;SDS011;50121;51.218;7.664;2023-09-12T03:05:37;15.20;;;13.70;;
63943;SDS011;50121;51.218;7.664;2023-09-12T03:08:04;15.93;;;13.50;;
63943;SDS011;50121;51.218;7.664;2023-09-12T03:10:32;13.93;;;12.52;;
63943;SDS011;50121;51.218;7.664;2023-09-12T03:13:00;14.60;;;13.10;;
63943;SDS011;50121;51.218;7.664;2023-09-12T03:15:27;13.73;;;12.18;;
63943;SDS011;50121;51.218;7.664;2023-09-12T03:17:55;13.55;;;11.95;;
63943;SDS011;50121;51.218;7.664;2023-09-12T03:20:23;13.80;;;12.50;;
63943;SDS011;50121;51.218;7.664;2023-09-12T03:22:50;13.55;;;12.23;;
63943;SDS011;50121;51.218;7.664;2023-09-12T03:25:18;13.20;;;11.90;;
63943;SDS011;50121;51.218;7.664;2023-09-12T03:27:45;15.00;;;11.57;;
63943;SDS011;50121;51.218;7.664;2023-09-12T03:30:13;12.43;;;11.05;;
63943;SDS011;50121;51.218;7.664;2023-09-12T03:32:41;12.35;;;11.00;;
63943;SDS011;50121;51.218;7.664;2023-09-12T03:35:08;13.35;;;11.60;;
63943;SDS011;50121;51.218;7.664;2023-09-12T03:37:36;13.38;;;12.23;;
63943;SDS011;50121;51.218;7.664;2023-09-12T03:40:06;14.00;;;12.60;;
63943;SDS011;50121;51.218;7.664;2023-09-12T03:42:34;12.77;;;11.48;;
63943;SDS011;50121;51.218;7.664;2023-09-12T03:45:07;13.30;;;11.98;;
63943;SDS011;50121;51.218;7.664;2023-09-12T03:47:35;12.70;;;11.50;;
63943;SDS011;50121;51.218;7.664;2023-09-12T03:50:03;12.85;;;11.50;;
63943;SDS011;50121;51.218;7.664;2023-09-12T03:52:31;12.30;;;11.27;;
63943;SDS011;50121;51.218;7.664;2023-09-12T03:54:59;13.93;;;11.63;;
63943;SDS011;50121;51.218;7.664;2023-09-12T03:57:29;12.43;;;11.23;;
63943;SDS011;50121;51.218;7.664;2023-09-12T03:59:57;12.48;;;11.38;;
63943;SDS011;50121;51.218;7.664;2023-09-12T04:02:24;12.95;;;11.65;;
63943;SDS011;50121;51.218;7.664;2023-09-12T04:04:52;12.93;;;11.73;;
63943;SDS011;50121;51.218;7.664;2023-09-12T04:07:20;13.98;;;12.43;;
63943;SDS011;50121;51.218;7.664;2023-09-12T04:09:47;12.82;;;11.63;;
63943;SDS011;50121;51.218;7.664;2023-09-12T04:12:15;13.07;;;11.98;;
63943;SDS011;50121;51.218;7.664;2023-09-12T04:14:42;13.55;;;12.15;;
63943;SDS011;50121;51.218;7.664;2023-09-12T04:17:10;14.85;;;13.32;;
63943;SDS011;50121;51.218;7.664;2023-09-12T04:19:38;13.77;;;12.40;;
63943;SDS011;50121;51.218;7.664;2023-09-12T04:22:05;15.73;;;13.15;;
63943;SDS011;50121;51.218;7.664;2023-09-12T04:24:33;14.98;;;13.13;;
63943;SDS011;50121;51.218;7.664;2023-09-12T04:27:00;15.13;;;13.63;;
63943;SDS011;50121;51.218;7.664;2023-09-12T04:29:31;15.45;;;14.00;;
63943;SDS011;50121;51.218;7.664;2023-09-12T04:31:59;15.20;;;13.52;;
63943;SDS011;50121;51.218;7.664;2023-09-12T04:34:27;16.02;;;14.43;;
63943;SDS011;50121;51.218;7.664;2023-09-12T04:36:55;16.38;;;14.65;;
63943;SDS011;50121;51.218;7.664;2023-09-12T04:39:23;17.73;;;15.00;;
63943;SDS011;50121;51.218;7.664;2023-09-12T04:41:51;18.15;;;16.42;;
63943;SDS011;50121;51.218;7.664;2023-09-12T04:44:19;20.60;;;17.25;;
63943;SDS011;50121;51.218;7.664;2023-09-12T04:46:47;17.48;;;15.65;;
63943;SDS011;50121;51.218;7.664;2023-09-12T04:49:15;16.90;;;15.20;;
63943;SDS011;50121;51.218;7.664;2023-09-12T04:51:42;16.60;;;14.85;;
63943;SDS011;50121;51.218;7.664;2023-09-12T04:54:10;16.58;;;14.77;;
63943;SDS011;50121;51.218;7.664;2023-09-12T04:56:38;17.55;;;15.73;;
63943;SDS011;50121;51.218;7.664;2023-09-12T04:59:05;21.55;;;19.27;;
63943;SDS011;50121;51.218;7.664;2023-09-12T05:01:33;17.83;;;15.93;;
63943;SDS011;50121;51.218;7.664;2023-09-12T05:04:01;16.33;;;14.63;;
63943;SDS011;50121;51.218;7.664;2023-09-12T05:06:30;17.55;;;15.80;;
63943;SDS011;50121;51.218;7.664;2023-09-12T05:08:58;17.55;;;15.68;;
63943;SDS011;50121;51.218;7.664;2023-09-12T05:11:26;17.38;;;15.70;;
63943;SDS011;50121;51.218;7.664;2023-09-12T05:13:53;22.17;;;15.52;;
63943;SDS011;50121;51.218;7.664;2023-09-12T05:16:21;16.85;;;15.13;;
63943;SDS011;50121;51.218;7.664;2023-09-12T05:18:49;17.33;;;15.57;;
63943;SDS011;50121;51.218;7.664;2023-09-12T05:21:17;17.67;;;15.88;;
63943;SDS011;50121;51.218;7.664;2023-09-12T05:23:45;19.70;;;16.70;;
63943;SDS011;50121;51.218;7.664;2023-09-12T05:26:12;19.08;;;17.13;;
63943;SDS011;50121;51.218;7.664;2023-09-12T05:28:40;18.00;;;16.25;;
63943;SDS011;50121;51.218;7.664;2023-09-12T05:31:08;18.42;;;16.52;;
63943;SDS011;50121;51.218;7.664;2023-09-12T05:33:36;17.95;;;15.30;;
63943;SDS011;50121;51.218;7.664;2023-09-12T05:36:04;20.67;;;16.95;;
63943;SDS011;50121;51.218;7.664;2023-09-12T05:38:31;18.38;;;16.48;;
63943;SDS011;50121;51.218;7.664;2023-09-12T05:40:59;19.35;;;16.35;;
63943;SDS011;50121;51.218;7.664;2023-09-12T05:43:27;18.40;;;16.50;;
63943;SDS011;50121;51.218;7.664;2023-09-12T05:45:55;18.42;;;16.63;;
63943;SDS011;50121;51.218;7.664;2023-09-12T05:51:36;19.60;;;17.60;;
63943;SDS011;50121;51.218;7.664;2023-09-12T05:54:04;22.88;;;16.95;;
63943;SDS011;50121;51.218;7.664;2023-09-12T05:56:32;19.17;;;16.23;;
63943;SDS011;50121;51.218;7.664;2023-09-12T05:58:59;19.45;;;16.38;;
63943;SDS011;50121;51.218;7.664;2023-09-12T06:01:27;17.88;;;16.05;;
63943;SDS011;50121;51.218;7.664;2023-09-12T06:03:55;18.13;;;16.33;;
63943;SDS011;50121;51.218;7.664;2023-09-12T06:06:23;17.15;;;15.35;;
63943;SDS011;50121;51.218;7.664;2023-09-12T06:08:50;19.90;;;14.98;;
63943;SDS011;50121;51.218;7.664;2023-09-12T06:11:20;17.90;;;16.00;;
63943;SDS011;50121;51.218;7.664;2023-09-12T06:13:47;17.30;;;15.50;;
63943;SDS011;50121;51.218;7.664;2023-09-12T06:16:15;18.02;;;16.33;;
63943;SDS011;50121;51.218;7.664;2023-09-12T06:18:42;17.95;;;16.15;;
63943;SDS011;50121;51.218;7.664;2023-09-12T06:21:10;18.52;;;16.63;;
63943;SDS011;50121;51.218;7.664;2023-09-12T06:23:38;16.67;;;14.98;;
63943;SDS011;50121;51.218;7.664;2023-09-12T06:26:05;17.02;;;15.25;;
63943;SDS011;50121;51.218;7.664;2023-09-12T06:28:33;16.95;;;15.25;;
63943;SDS011;50121;51.218;7.664;2023-09-12T06:31:00;17.92;;;16.13;;
63943;SDS011;50121;51.218;7.664;2023-09-12T06:33:28;18.90;;;17.00;;
63943;SDS011;50121;51.218;7.664;2023-09-12T06:35:56;18.45;;;16.67;;
63943;SDS011;50121;51.218;7.664;2023-09-12T06:38:23;17.88;;;16.10;;
63943;SDS011;50121;51.218;7.664;2023-09-12T06:40:51;16.83;;;15.27;;
63943;SDS011;50121;51.218;7.664;2023-09-12T06:43:18;17.30;;;15.60;;
63943;SDS011;50121;51.218;7.664;2023-09-12T06:45:46;16.55;;;14.80;;
63943;SDS011;50121;51.218;7.664;2023-09-12T06:48:14;15.18;;;13.70;;
63943;SDS011;50121;51.218;7.664;2023-09-12T06:50:43;17.17;;;14.40;;
63943;SDS011;50121;51.218;7.664;2023-09-12T06:53:13;18.25;;;15.25;;
63943;SDS011;50121;51.218;7.664;2023-09-12T06:55:40;17.77;;;15.05;;
63943;SDS011;50121;51.218;7.664;2023-09-12T06:58:08;17.75;;;15.82;;
63943;SDS011;50121;51.218;7.664;2023-09-12T07:00:35;18.65;;;14.85;;
63943;SDS011;50121;51.218;7.664;2023-09-12T07:03:03;19.60;;;15.13;;
63943;SDS011;50121;51.218;7.664;2023-09-12T07:05:31;17.42;;;15.52;;
63943;SDS011;50121;51.218;7.664;2023-09-12T07:07:59;17.05;;;15.32;;
63943;SDS011;50121;51.218;7.664;2023-09-12T07:10:27;18.10;;;16.35;;
63943;SDS011;50121;51.218;7.664;2023-09-12T07:12:54;16.10;;;14.68;;
63943;SDS011;50121;51.218;7.664;2023-09-12T07:15:22;16.08;;;14.27;;
63943;SDS011;50121;51.218;7.664;2023-09-12T07:17:49;16.15;;;14.57;;
63943;SDS011;50121;51.218;7.664;2023-09-12T07:20:17;17.27;;;15.73;;
63943;SDS011;50121;51.218;7.664;2023-09-12T07:22:46;16.48;;;14.88;;
63943;SDS011;50121;51.218;7.664;2023-09-12T07:25:14;20.23;;;16.33;;
63943;SDS011;50121;51.218;7.664;2023-09-12T07:27:42;16.83;;;15.32;;
63943;SDS011;50121;51.218;7.664;2023-09-12T07:30:10;16.73;;;15.02;;
63943;SDS011;50121;51.218;7.664;2023-09-12T07:32:38;16.38;;;14.77;;
63943;SDS011;50121;51.218;7.664;2023-09-12T07:35:05;16.73;;;15.13;;
63943;SDS011;50121;51.218;7.664;2023-09-12T07:37:33;17.30;;;15.50;;
63943;SDS011;50121;51.218;7.664;2023-09-12T07:40:01;17.23;;;15.52;;
63943;SDS011;50121;51.218;7.664;2023-09-12T07:42:36;18.48;;;16.58;;
63943;SDS011;50121;51.218;7.664;2023-09-12T07:45:04;17.42;;;15.73;;
63943;SDS011;50121;51.218;7.664;2023-09-12T07:47:32;16.73;;;14.98;;
63943;SDS011;50121;51.218;7.664;2023-09-12T07:50:00;18.55;;;15.57;;
63943;SDS011;50121;51.218;7.664;2023-09-12T07:52:28;18.00;;;16.17;;
63943;SDS011;50121;51.218;7.664;2023-09-12T07:54:59;17.85;;;16.13;;
63943;SDS011;50121;51.218;7.664;2023-09-12T07:57:27;16.60;;;14.90;;
63943;SDS011;50121;51.218;7.664;2023-09-12T07:59:56;16.52;;;14.90;;
63943;SDS011;50121;51.218;7.664;2023-09-12T08:02:23;17.83;;;15.93;;
63943;SDS011;50121;51.218;7.664;2023-09-12T08:04:51;18.38;;;16.77;;
63943;SDS011;50121;51.218;7.664;2023-09-12T08:07:20;17.85;;;16.08;;
63943;SDS011;50121;51.218;7.664;2023-09-12T08:09:52;17.08;;;15.38;;
63943;SDS011;50121;51.218;7.664;2023-09-12T08:12:20;17.98;;;16.05;;
63943;SDS011;50121;51.218;7.664;2023-09-12T08:14:48;20.10;;;16.45;;
63943;SDS011;50121;51.218;7.664;2023-09-12T08:17:16;19.30;;;17.45;;
63943;SDS011;50121;51.218;7.664;2023-09-12T08:19:43;22.05;;;19.33;;
63943;SDS011;50121;51.218;7.664;2023-09-12T08:22:11;21.83;;;17.88;;
63943;SDS011;50121;51.218;7.664;2023-09-12T08:24:39;23.38;;;16.98;;
63943;SDS011;50121;51.218;7.664;2023-09-12T08:27:07;19.48;;;17.65;;
63943;SDS011;50121;51.218;7.664;2023-09-12T08:29:36;41.95;;;17.80;;
63943;SDS011;50121;51.218;7.664;2023-09-12T08:32:05;17.85;;;16.20;;
63943;SDS011;50121;51.218;7.664;2023-09-12T08:34:32;18.27;;;16.48;;
63943;SDS011;50121;51.218;7.664;2023-09-12T08:37:00;19.63;;;16.73;;
63943;SDS011;50121;51.218;7.664;2023-09-12T08:39:33;19.33;;;17.27;;
63943;SDS011;50121;51.218;7.664;2023-09-12T08:42:06;19.23;;;17.35;;
63943;SDS011;50121;51.218;7.664;2023-09-12T08:44:35;19.70;;;17.75;;
63943;SDS011;50121;51.218;7.664;2023-09-12T08:47:03;21.35;;;15.95;;
63943;SDS011;50121;51.218;7.664;2023-09-12T08:49:32;18.23;;;16.15;;
63943;SDS011;50121;51.218;7.664;2023-09-12T08:52:00;18.48;;;16.70;;
63943;SDS011;50121;51.218;7.664;2023-09-12T08:54:29;18.63;;;16.90;;
63943;SDS011;50121;51.218;7.664;2023-09-12T08:56:56;18.60;;;15.82;;
63943;SDS011;50121;51.218;7.664;2023-09-12T08:59:24;16.30;;;14.70;;
63943;SDS011;50121;51.218;7.664;2023-09-12T09:01:53;17.55;;;14.63;;
63943;SDS011;50121;51.218;7.664;2023-09-12T09:04:22;16.70;;;15.30;;
63943;SDS011;50121;51.218;7.664;2023-09-12T09:06:53;17.02;;;15.25;;
63943;SDS011;50121;51.218;7.664;2023-09-12T09:09:23;17.25;;;15.57;;
63943;SDS011;50121;51.218;7.664;2023-09-12T09:11:51;16.80;;;15.18;;
63943;SDS011;50121;51.218;7.664;2023-09-12T09:14:18;18.42;;;16.70;;
63943;SDS011;50121;51.218;7.664;2023-09-12T09:16:46;16.88;;;15.38;;
63943;SDS011;50121;51.218;7.664;2023-09-12T09:19:14;24.02;;;20.85;;
63943;SDS011;50121;51.218;7.664;2023-09-12T09:21:43;18.45;;;16.42;;
63943;SDS011;50121;51.218;7.664;2023-09-12T09:24:11;19.05;;;17.08;;
63943;SDS011;50121;51.218;7.664;2023-09-12T09:29:19;17.17;;;15.40;;
63943;SDS011;50121;51.218;7.664;2023-09-12T09:31:47;15.35;;;13.85;;
63943;SDS011;50121;51.218;7.664;2023-09-12T09:34:16;15.65;;;14.05;;
63943;SDS011;50121;51.218;7.664;2023-09-12T09:36:48;15.70;;;14.05;;
63943;SDS011;50121;51.218;7.664;2023-09-12T09:39:16;14.30;;;12.98;;
63943;SDS011;50121;51.218;7.664;2023-09-12T09:41:47;15.20;;;13.77;;
63943;SDS011;50121;51.218;7.664;2023-09-12T09:44:15;14.82;;;13.20;;
63943;SDS011;50121;51.218;7.664;2023-09-12T09:46:44;17.48;;;15.77;;
63943;SDS011;50121;51.218;7.664;2023-09-12T09:49:15;16.38;;;14.80;;
63943;SDS011;50121;51.218;7.664;2023-09-12T09:51:44;18.17;;;14.18;;
63943;SDS011;50121;51.218;7.664;2023-09-12T09:54:12;15.35;;;13.80;;
63943;SDS011;50121;51.218;7.664;2023-09-12T09:56:47;15.50;;;13.93;;
63943;SDS011;50121;51.218;7.664;2023-09-12T09:59:18;22.63;;;17.58;;
63943;SDS011;50121;51.218;7.664;2023-09-12T10:01:46;17.52;;;15.70;;
63943;SDS011;50121;51.218;7.664;2023-09-12T10:04:15;16.67;;;14.98;;
63943;SDS011;50121;51.218;7.664;2023-09-12T10:06:43;17.17;;;15.23;;
63943;SDS011;50121;51.218;7.664;2023-09-12T10:09:14;17.58;;;15.75;;
63943;SDS011;50121;51.218;7.664;2023-09-12T10:11:43;17.17;;;15.48;;
63943;SDS011;50121;51.218;7.664;2023-09-12T10:14:12;17.10;;;15.50;;
63943;SDS011;50121;51.218;7.664;2023-09-12T10:16:46;17.75;;;15.13;;
63943;SDS011;50121;51.218;7.664;2023-09-12T10:19:31;31.52;;;26.45;;
63943;SDS011;50121;51.218;7.664;2023-09-12T10:24:30;19.13;;;17.17;;
63943;SDS011;50121;51.218;7.664;2023-09-12T10:26:58;20.13;;;17.65;;
63943;SDS011;50121;51.218;7.664;2023-09-12T10:29:27;17.33;;;15.52;;
63943;SDS011;50121;51.218;7.664;2023-09-12T10:31:55;17.77;;;14.95;;
63943;SDS011;50121;51.218;7.664;2023-09-12T10:34:24;18.98;;;17.10;;
63943;SDS011;50121;51.218;7.664;2023-09-12T10:36:52;16.88;;;15.00;;
63943;SDS011;50121;51.218;7.664;2023-09-12T10:39:20;17.98;;;16.08;;
63943;SDS011;50121;51.218;7.664;2023-09-12T10:41:48;17.35;;;14.88;;
63943;SDS011;50121;51.218;7.664;2023-09-12T10:44:17;19.02;;;15.13;;
63943;SDS011;50121;51.218;7.664;2023-09-12T10:46:45;17.33;;;14.73;;
63943;SDS011;50121;51.218;7.664;2023-09-12T10:49:14;16.30;;;14.57;;
63943;SDS011;50121;51.218;7.664;2023-09-12T10:51:42;16.42;;;14.57;;
63943;SDS011;50121;51.218;7.664;2023-09-12T10:54:53;16.60;;;14.82;;
63943;SDS011;50121;51.218;7.664;2023-09-12T10:57:05;17.77;;;15.95;;
63943;SDS011;50121;51.218;7.664;2023-09-12T10:59:33;16.67;;;14.65;;
63943;SDS011;50121;51.218;7.664;2023-09-12T11:04:50;34.97;;;31.73;;
63943;SDS011;50121;51.218;7.664;2023-09-12T11:12:56;18.65;;;15.32;;
63943;SDS011;50121;51.218;7.664;2023-09-12T11:15:24;19.48;;;17.60;;
63943;SDS011;50121;51.218;7.664;2023-09-12T11:18:02;17.05;;;15.32;;
63943;SDS011;50121;51.218;7.664;2023-09-12T11:20:50;16.50;;;14.80;;
63943;SDS011;50121;51.218;7.664;2023-09-12T11:23:19;17.52;;;15.75;;
63943;SDS011;50121;51.218;7.664;2023-09-12T11:25:47;18.70;;;16.75;;
63943;SDS011;50121;51.218;7.664;2023-09-12T11:28:15;16.63;;;14.93;;
63943;SDS011;50121;51.218;7.664;2023-09-12T11:30:54;18.05;;;14.77;;
63943;SDS011;50121;51.218;7.664;2023-09-12T11:33:24;17.50;;;15.43;;
63943;SDS011;50121;51.218;7.664;2023-09-12T11:35:53;17.33;;;15.73;;
63943;SDS011;50121;51.218;7.664;2023-09-12T11:38:28;17.63;;;15.93;;
63943;SDS011;50121;51.218;7.664;2023-09-12T11:40:56;18.17;;;14.52;;
63943;SDS011;50121;51.218;7.664;2023-09-12T11:43:24;16.63;;;14.98;;
63943;SDS011;50121;51.218;7.664;2023-09-12T11:45:52;16.92;;;14.52;;
63943;SDS011;50121;51.218;7.664;2023-09-12T11:48:21;16.25;;;14.65;;
63943;SDS011;50121;51.218;7.664;2023-09-12T11:50:51;16.55;;;14.48;;
63943;SDS011;50121;51.218;7.664;2023-09-12T11:53:20;14.75;;;13.35;;
63943;SDS011;50121;51.218;7.664;2023-09-12T11:55:50;15.25;;;13.75;;
63943;SDS011;50121;51.218;7.664;2023-09-12T11:58:18;16.35;;;13.77;;
63943;SDS011;50121;51.218;7.664;2023-09-12T12:00:49;15.75;;;14.30;;
63943;SDS011;50121;51.218;7.664;2023-09-12T12:03:18;16.58;;;14.98;;
63943;SDS011;50121;51.218;7.664;2023-09-12T12:05:46;18.17;;;13.63;;
63943;SDS011;50121;51.218;7.664;2023-09-12T12:08:15;16.20;;;14.48;;
63943;SDS011;50121;51.218;7.664;2023-09-12T12:10:54;15.02;;;13.60;;
63943;SDS011;50121;51.218;7.664;2023-09-12T12:13:21;15.73;;;14.23;;
63943;SDS011;50121;51.218;7.664;2023-09-12T12:15:49;14.35;;;12.95;;
63943;SDS011;50121;51.218;7.664;2023-09-12T12:18:17;14.57;;;13.18;;
63943;SDS011;50121;51.218;7.664;2023-09-12T12:20:44;16.38;;;14.70;;
63943;SDS011;50121;51.218;7.664;2023-09-12T12:23:12;16.38;;;14.43;;
63943;SDS011;50121;51.218;7.664;2023-09-12T12:25:41;18.00;;;16.23;;
63943;SDS011;50121;51.218;7.664;2023-09-12T12:28:08;17.02;;;15.23;;
63943;SDS011;50121;51.218;7.664;2023-09-12T12:30:36;18.08;;;14.38;;
63943;SDS011;50121;51.218;7.664;2023-09-12T12:33:08;16.00;;;14.45;;
63943;SDS011;50121;51.218;7.664;2023-09-12T12:35:36;15.77;;;14.23;;
63943;SDS011;50121;51.218;7.664;2023-09-12T12:38:05;18.13;;;14.27;;
63943;SDS011;50121;51.218;7.664;2023-09-12T12:40:37;15.25;;;13.68;;
63943;SDS011;50121;51.218;7.664;2023-09-12T12:43:16;15.45;;;13.25;;
63943;SDS011;50121;51.218;7.664;2023-09-12T12:45:54;16.83;;;13.23;;
63943;SDS011;50121;51.218;7.664;2023-09-12T12:48:29;15.40;;;13.52;;
63943;SDS011;50121;51.218;7.664;2023-09-12T12:50:58;14.55;;;13.20;;
63943;SDS011;50121;51.218;7.664;2023-09-12T12:53:42;17.40;;;15.60;;
63943;SDS011;50121;51.218;7.664;2023-09-12T12:56:23;16.30;;;14.30;;
63943;SDS011;50121;51.218;7.664;2023-09-12T12:58:51;20.33;;;13.35;;
63943;SDS011;50121;51.218;7.664;2023-09-12T13:01:20;13.98;;;12.57;;
63943;SDS011;50121;51.218;7.664;2023-09-12T13:03:48;14.68;;;13.18;;
63943;SDS011;50121;51.218;7.664;2023-09-12T13:06:20;13.77;;;12.38;;
63943;SDS011;50121;51.218;7.664;2023-09-12T13:08:49;16.38;;;12.80;;
63943;SDS011;50121;51.218;7.664;2023-09-12T13:11:16;17.92;;;12.43;;
63943;SDS011;50121;51.218;7.664;2023-09-12T13:13:44;13.32;;;12.02;;
63943;SDS011;50121;51.218;7.664;2023-09-12T13:16:13;14.57;;;11.23;;
63943;SDS011;50121;51.218;7.664;2023-09-12T13:18:41;13.00;;;11.60;;
63943;SDS011;50121;51.218;7.664;2023-09-12T13:21:09;13.40;;;11.30;;
63943;SDS011;50121;51.218;7.664;2023-09-12T13:23:37;14.07;;;12.60;;
63943;SDS011;50121;51.218;7.664;2023-09-12T13:26:09;13.63;;;11.23;;
63943;SDS011;50121;51.218;7.664;2023-09-12T13:28:36;13.27;;;11.85;;
63943;SDS011;50121;51.218;7.664;2023-09-12T13:31:04;12.55;;;11.55;;
63943;SDS011;50121;51.218;7.664;2023-09-12T13:33:32;12.77;;;11.50;;
63943;SDS011;50121;51.218;7.664;2023-09-12T13:35:59;14.75;;;11.38;;
63943;SDS011;50121;51.218;7.664;2023-09-12T13:38:27;11.65;;;10.50;;
63943;SDS011;50121;51.218;7.664;2023-09-12T13:40:55;10.68;;;9.77;;
63943;SDS011;50121;51.218;7.664;2023-09-12T13:43:22;11.13;;;10.07;;
63943;SDS011;50121;51.218;7.664;2023-09-12T13:45:50;11.63;;;10.43;;
63943;SDS011;50121;51.218;7.664;2023-09-12T13:48:18;10.60;;;9.70;;
63943;SDS011;50121;51.218;7.664;2023-09-12T13:50:46;10.85;;;9.80;;
63943;SDS011;50121;51.218;7.664;2023-09-12T13:53:13;13.20;;;9.75;;
63943;SDS011;50121;51.218;7.664;2023-09-12T13:55:41;10.30;;;9.30;;
63943;SDS011;50121;51.218;7.664;2023-09-12T13:58:08;11.80;;;10.45;;
63943;SDS011;50121;51.218;7.664;2023-09-12T14:00:36;12.45;;;11.32;;
63943;SDS011;50121;51.218;7.664;2023-09-12T14:03:04;12.32;;;11.07;;
63943;SDS011;50121;51.218;7.664;2023-09-12T14:05:31;11.07;;;9.93;;
63943;SDS011;50121;51.218;7.664;2023-09-12T14:07:59;10.20;;;9.23;;
63943;SDS011;50121;51.218;7.664;2023-09-12T14:10:27;10.80;;;9.77;;
63943;SDS011;50121;51.218;7.664;2023-09-12T14:12:59;10.63;;;9.15;;
63943;SDS011;50121;51.218;7.664;2023-09-12T14:15:36;9.85;;;8.80;;
63943;SDS011;50121;51.218;7.664;2023-09-12T14:18:03;10.80;;;9.80;;
63943;SDS011;50121;51.218;7.664;2023-09-12T14:20:31;10.63;;;9.13;;
63943;SDS011;50121;51.218;7.664;2023-09-12T14:22:59;11.57;;;10.45;;
63943;SDS011;50121;51.218;7.664;2023-09-12T14:25:28;11.52;;;10.52;;
63943;SDS011;50121;51.218;7.664;2023-09-12T14:27:56;11.35;;;10.40;;
63943;SDS011;50121;51.218;7.664;2023-09-12T14:30:24;10.60;;;9.63;;
63943;SDS011;50121;51.218;7.664;2023-09-12T14:33:00;10.05;;;9.13;;
63943;SDS011;50121;51.218;7.664;2023-09-12T14:35:28;9.38;;;8.55;;
63943;SDS011;50121;51.218;7.664;2023-09-12T14:37:56;10.57;;;9.68;;
63943;SDS011;50121;51.218;7.664;2023-09-12T14:40:25;13.27;;;9.38;;
63943;SDS011;50121;51.218;7.664;2023-09-12T14:42:53;10.85;;;9.85;;
63943;SDS011;50121;51.218;7.664;2023-09-12T14:45:21;10.75;;;9.73;;
63943;SDS011;50121;51.218;7.664;2023-09-12T14:47:52;9.75;;;8.95;;
63943;SDS011;50121;51.218;7.664;2023-09-12T14:50:22;10.23;;;9.38;;
63943;SDS011;50121;51.218;7.664;2023-09-12T14:53:02;10.50;;;9.68;;
63943;SDS011;50121;51.218;7.664;2023-09-12T14:55:30;9.82;;;9.13;;
63943;SDS011;50121;51.218;7.664;2023-09-12T14:58:00;12.18;;;10.10;;